createdAt,value
2022-11-16T00:01:43.524Z,11.63
2022-11-16T00:04:12.953Z,11.63
2022-11-16T00:06:40.856Z,11.71
2022-11-16T00:09:23.861Z,11.68
2022-11-16T00:11:53.311Z,11.72
2022-11-16T00:14:21.827Z,11.71
2022-11-16T00:16:50.934Z,11.68
2022-11-16T00:19:18.753Z,11.68
2022-11-16T00:21:46.568Z,11.69
2022-11-16T00:24:15.077Z,11.79
2022-11-16T00:26:43.373Z,11.93
2022-11-16T00:29:15.042Z,11.96
2022-11-16T00:31:42.833Z,11.90
2022-11-16T00:34:12.235Z,11.92
2022-11-16T00:36:40.012Z,11.99
2022-11-16T00:39:07.837Z,12.00
2022-11-16T00:41:35.595Z,11.93
2022-11-16T00:44:03.447Z,11.87
2022-11-16T00:46:31.231Z,11.85
2022-11-16T00:48:59.029Z,11.86
2022-11-16T00:51:28.183Z,11.87
2022-11-16T00:53:56.024Z,11.96
2022-11-16T00:56:24.571Z,11.94
2022-11-16T00:58:52.400Z,11.96
2022-11-16T01:01:20.366Z,12.06
2022-11-16T01:03:48.416Z,12.04
2022-11-16T01:06:17.499Z,12.02
2022-11-16T01:08:47.144Z,12.04
2022-11-16T01:11:33.790Z,12.07
2022-11-16T01:14:04.333Z,12.12
2022-11-16T01:16:32.224Z,12.04
2022-11-16T01:19:00.315Z,12.04
2022-11-16T01:21:28.479Z,12.20
2022-11-16T01:23:58.017Z,12.23
2022-11-16T01:26:26.181Z,12.22
2022-11-16T01:28:54.242Z,12.09
2022-11-16T01:31:22.520Z,12.10
2022-11-16T01:33:52.615Z,12.14
2022-11-16T01:36:26.945Z,12.13
2022-11-16T01:38:58.250Z,12.04
2022-11-16T01:41:29.927Z,12.07
2022-11-16T01:44:02.605Z,12.07
2022-11-16T01:46:36.574Z,11.99
2022-11-16T01:49:09.830Z,11.96
2022-11-16T01:51:38.840Z,11.97
2022-11-16T01:54:11.133Z,12.07
2022-11-16T01:56:46.240Z,12.09
2022-11-16T01:59:23.972Z,12.06
2022-11-16T02:01:52.324Z,12.02
2022-11-16T02:04:22.556Z,12.02
2022-11-16T02:07:02.550Z,11.87
2022-11-16T02:09:55.528Z,11.85
2022-11-16T02:12:53.363Z,11.93
2022-11-16T02:15:29.378Z,11.90
2022-11-16T02:18:20.530Z,11.89
2022-11-16T02:21:15.664Z,11.82
2022-11-16T02:24:15.863Z,11.81
2022-11-16T02:27:26.006Z,11.73
2022-11-16T02:29:56.394Z,11.72
2022-11-16T02:32:31.458Z,11.69
2022-11-16T02:35:05.937Z,11.68
2022-11-16T02:37:39.116Z,11.65
2022-11-16T02:40:12.168Z,11.65
2022-11-16T02:42:43.206Z,11.55
2022-11-16T02:45:19.362Z,11.59
2022-11-16T02:47:49.105Z,11.61
2022-11-16T02:50:21.226Z,11.61
2022-11-16T02:52:48.963Z,11.62
2022-11-16T02:55:16.837Z,11.58
2022-11-16T02:57:51.042Z,11.58
2022-11-16T03:00:24.942Z,11.52
2022-11-16T03:03:02.490Z,11.41
2022-11-16T03:05:34.487Z,11.34
2022-11-16T03:08:16.568Z,11.49
2022-11-16T03:11:07.557Z,11.59
2022-11-16T03:13:37.593Z,11.55
2022-11-16T03:16:12.307Z,11.62
2022-11-16T03:18:41.863Z,11.58
2022-11-16T03:21:15.002Z,11.48
2022-11-16T03:23:45.801Z,11.45
2022-11-16T03:26:17.994Z,11.55
2022-11-16T03:28:52.517Z,11.52
2022-11-16T03:31:26.719Z,11.58
2022-11-16T03:33:58.171Z,11.51
2022-11-16T03:36:29.239Z,11.51
2022-11-16T03:39:02.981Z,11.46
2022-11-16T03:41:34.267Z,11.45
2022-11-16T03:44:02.976Z,11.51
2022-11-16T03:46:32.236Z,11.42
2022-11-16T03:49:01.980Z,11.42
2022-11-16T03:51:34.725Z,11.36
2022-11-16T03:54:02.665Z,11.35
2022-11-16T03:56:30.466Z,11.31
2022-11-16T03:58:58.219Z,11.32
2022-11-16T04:01:26.146Z,11.35
2022-11-16T04:03:55.739Z,11.31
2022-11-16T04:06:42.036Z,11.35
2022-11-16T04:09:23.988Z,11.38
2022-11-16T04:12:09.198Z,11.34
2022-11-16T04:14:56.558Z,11.36
2022-11-16T04:17:44.958Z,11.36
2022-11-16T04:20:33.952Z,11.38
2022-11-16T04:23:22.900Z,11.42
2022-11-16T04:25:52.687Z,11.39
2022-11-16T04:28:22.807Z,11.38
2022-11-16T04:31:17.105Z,11.34
2022-11-16T04:34:22.490Z,11.30
2022-11-16T04:37:12.386Z,11.41
2022-11-16T04:39:41.603Z,11.32
2022-11-16T04:42:15.775Z,11.31
2022-11-16T04:45:03.889Z,11.20
2022-11-16T04:47:37.986Z,11.18
2022-11-16T04:50:06.688Z,11.07
2022-11-16T04:52:36.024Z,11.11
2022-11-16T04:55:05.676Z,11.08
2022-11-16T04:57:33.506Z,10.90
2022-11-16T05:00:01.436Z,10.87
2022-11-16T05:02:29.234Z,10.79
2022-11-16T05:04:59.087Z,10.74
2022-11-16T05:07:27.858Z,10.79
2022-11-16T05:10:05.757Z,10.71
2022-11-16T05:12:34.852Z,10.67
2022-11-16T05:15:07.808Z,10.53
2022-11-16T05:17:36.081Z,10.45
2022-11-16T05:20:26.007Z,10.39
2022-11-16T05:22:59.678Z,10.45
2022-11-16T05:25:36.794Z,10.38
2022-11-16T05:28:07.835Z,10.35
2022-11-16T05:30:39.939Z,10.29
2022-11-16T05:33:08.066Z,10.16
2022-11-16T05:35:39.995Z,10.19
2022-11-16T05:38:09.007Z,10.23
2022-11-16T05:40:43.237Z,10.15
2022-11-16T05:43:11.590Z,10.03
2022-11-16T05:45:45.895Z,10.03
2022-11-16T05:48:15.846Z,10.06
2022-11-16T05:50:44.173Z,10.02
2022-11-16T05:53:19.412Z,10.01
2022-11-16T05:55:49.443Z,9.87
2022-11-16T05:58:19.039Z,9.85
2022-11-16T06:00:47.431Z,9.88
2022-11-16T06:03:16.841Z,9.98
2022-11-16T06:05:44.720Z,9.92
2022-11-16T06:08:14.978Z,9.92
2022-11-16T06:10:43.305Z,9.94
2022-11-16T06:13:12.433Z,9.94
2022-11-16T06:18:26.200Z,10.01
2022-11-16T06:20:54.792Z,9.95
2022-11-16T06:23:23.051Z,10.05
2022-11-16T06:25:54.989Z,9.97
2022-11-16T06:28:27.664Z,10.02
2022-11-16T06:30:56.372Z,9.94
2022-11-16T06:33:30.815Z,9.97
2022-11-16T06:36:02.117Z,9.85
2022-11-16T06:38:30.455Z,9.79
2022-11-16T06:40:59.852Z,9.77
2022-11-16T06:43:31.307Z,9.67
2022-11-16T06:46:01.112Z,9.65
2022-11-16T06:48:28.952Z,9.55
2022-11-16T06:50:56.713Z,9.58
2022-11-16T06:53:28.955Z,9.58
2022-11-16T06:56:02.995Z,9.54
2022-11-16T06:58:33.395Z,9.61
2022-11-16T07:01:06.987Z,9.57
2022-11-16T07:03:36.730Z,9.51
2022-11-16T07:06:09.488Z,9.38
2022-11-16T07:08:39.580Z,9.58
2022-11-16T07:11:10.010Z,9.71
2022-11-16T07:13:40.416Z,9.64
2022-11-16T07:16:11.692Z,9.50
2022-11-16T07:18:44.553Z,9.46
2022-11-16T07:21:14.655Z,9.50
2022-11-16T07:23:43.763Z,9.46
2022-11-16T07:26:15.128Z,9.44
2022-11-16T07:28:58.995Z,9.41
2022-11-16T07:31:27.637Z,9.43
2022-11-16T07:34:30.834Z,9.34
2022-11-16T07:37:08.195Z,9.48
2022-11-16T07:39:35.975Z,9.51
2022-11-16T07:42:11.539Z,9.60
2022-11-16T07:45:13.130Z,9.71
2022-11-16T07:47:52.263Z,9.88
2022-11-16T07:50:30.921Z,10.57
2022-11-16T07:52:59.105Z,11.31
2022-11-16T07:55:31.655Z,11.43
2022-11-16T07:58:00.164Z,11.11
2022-11-16T08:00:29.693Z,11.00
2022-11-16T08:03:07.085Z,10.63
2022-11-16T08:05:35.847Z,10.53
2022-11-16T08:08:03.720Z,10.35
2022-11-16T08:10:34.671Z,10.20
2022-11-16T08:13:02.587Z,10.23
2022-11-16T08:15:31.829Z,10.22
2022-11-16T08:18:03.111Z,10.22
2022-11-16T08:20:31.390Z,10.19
2022-11-16T08:23:02.552Z,10.26
2022-11-16T08:25:34.189Z,10.35
2022-11-16T08:28:02.446Z,10.48
2022-11-16T08:30:32.481Z,10.59
2022-11-16T08:33:01.174Z,10.61
2022-11-16T08:35:29.017Z,10.74
2022-11-16T08:37:56.889Z,12.04
2022-11-16T08:40:26.785Z,13.20
2022-11-16T08:42:57.025Z,14.03
2022-11-16T08:45:25.563Z,14.29
2022-11-16T08:48:03.573Z,14.51
2022-11-16T08:50:44.187Z,15.17
2022-11-16T08:53:20.136Z,15.64
2022-11-16T08:55:48.021Z,15.97
2022-11-16T08:58:16.635Z,16.28
2022-11-16T09:00:44.490Z,16.30
2022-11-16T09:03:13.638Z,16.42
2022-11-16T09:05:42.554Z,17.24
2022-11-16T09:08:11.708Z,16.88
2022-11-16T09:10:39.289Z,17.03
2022-11-16T09:13:07.072Z,17.08
2022-11-16T09:15:34.864Z,17.42
2022-11-16T09:18:02.646Z,17.24
2022-11-16T09:20:31.743Z,17.00
2022-11-16T09:22:59.513Z,17.22
2022-11-16T09:25:27.297Z,16.88
2022-11-16T09:27:56.199Z,16.77
2022-11-16T09:30:24.079Z,17.21
2022-11-16T09:32:51.960Z,17.19
2022-11-16T09:35:20.826Z,17.59
2022-11-16T09:37:49.937Z,17.68
2022-11-16T09:40:17.971Z,18.33
2022-11-16T09:42:59.740Z,18.40
2022-11-16T09:45:34.015Z,18.51
2022-11-16T09:48:06.009Z,18.13
2022-11-16T09:50:47.464Z,17.69
2022-11-16T09:53:21.789Z,18.26
2022-11-16T09:55:52.511Z,18.95
2022-11-16T09:58:24.025Z,18.48
2022-11-16T10:00:57.949Z,18.34
2022-11-16T10:03:28.552Z,18.20
2022-11-16T10:06:03.792Z,17.97
2022-11-16T10:08:44.118Z,18.24
2022-11-16T10:11:28.904Z,18.04
2022-11-16T10:14:04.233Z,18.29
2022-11-16T10:16:39.074Z,18.87
2022-11-16T10:19:15.816Z,19.08
2022-11-16T10:21:52.975Z,18.71
2022-11-16T10:24:40.616Z,18.16
2022-11-16T10:27:37.814Z,18.17
2022-11-16T10:30:11.025Z,18.34
2022-11-16T10:32:44.889Z,18.89
2022-11-16T10:35:19.781Z,18.98
2022-11-16T10:37:50.347Z,18.85
2022-11-16T10:40:23.400Z,18.65
2022-11-16T10:42:59.893Z,18.34
2022-11-16T10:45:34.345Z,18.29
2022-11-16T10:48:07.225Z,18.64
2022-11-16T10:50:40.359Z,18.67
2022-11-16T10:53:12.852Z,18.06
2022-11-16T10:55:42.253Z,17.01
2022-11-16T10:58:10.032Z,16.16
2022-11-16T11:00:44.827Z,15.11
2022-11-16T11:03:12.637Z,14.61
2022-11-16T11:05:49.792Z,14.03
2022-11-16T11:08:26.991Z,13.74
2022-11-16T11:11:20.640Z,13.76
2022-11-16T11:14:02.216Z,13.88
2022-11-16T11:16:30.133Z,13.86
2022-11-16T11:18:57.865Z,13.78
2022-11-16T11:21:28.090Z,13.70
2022-11-16T11:24:10.865Z,13.45
2022-11-16T11:26:52.282Z,13.36
2022-11-16T11:29:25.575Z,13.49
2022-11-16T11:31:56.336Z,13.32
2022-11-16T11:34:27.047Z,13.19
2022-11-16T11:36:57.709Z,13.19
2022-11-16T11:39:36.484Z,13.35
2022-11-16T11:42:23.869Z,13.83
2022-11-16T11:44:57.196Z,14.64
2022-11-16T11:47:56.738Z,14.87
2022-11-16T11:50:23.046Z,16.02
2022-11-16T11:53:03.809Z,16.34
2022-11-16T11:55:31.678Z,16.20
2022-11-16T11:58:02.868Z,16.06
2022-11-16T12:00:40.034Z,16.63
2022-11-16T12:03:32.643Z,16.79
2022-11-16T12:06:10.125Z,16.57
2022-11-16T12:09:02.297Z,15.07
2022-11-16T12:11:36.855Z,14.65
2022-11-16T12:14:26.272Z,14.44
2022-11-16T12:17:01.411Z,14.22
2022-11-16T12:19:46.604Z,14.64
2022-11-16T12:22:29.276Z,15.51
2022-11-16T12:25:07.489Z,16.05
2022-11-16T12:27:43.991Z,16.40
2022-11-16T12:30:17.458Z,16.69
2022-11-16T12:32:58.412Z,16.50
2022-11-16T12:35:45.828Z,16.49
2022-11-16T12:38:27.841Z,16.01
2022-11-16T12:41:11.491Z,15.47
2022-11-16T12:43:46.888Z,14.76
2022-11-16T12:46:24.560Z,14.38
2022-11-16T12:49:17.376Z,14.08
2022-11-16T12:51:58.577Z,14.04
2022-11-16T12:55:24.379Z,13.78
2022-11-16T12:57:48.895Z,13.45
2022-11-16T13:00:17.671Z,13.29
2022-11-16T13:03:15.220Z,13.15
2022-11-16T13:05:54.367Z,12.96
2022-11-16T13:08:33.683Z,12.92
2022-11-16T13:11:06.337Z,12.96
2022-11-16T13:13:37.202Z,13.06
2022-11-16T13:16:07.738Z,13.13
2022-11-16T13:18:42.297Z,13.22
2022-11-16T13:21:17.534Z,13.46
2022-11-16T13:23:56.714Z,13.62
2022-11-16T13:26:31.003Z,13.70
2022-11-16T13:29:06.084Z,13.71
2022-11-16T13:31:39.127Z,13.77
2022-11-16T13:34:14.033Z,13.74
2022-11-16T13:36:45.145Z,13.70
2022-11-16T13:39:21.612Z,13.62
2022-11-16T13:41:51.428Z,13.63
2022-11-16T13:44:29.612Z,13.62
2022-11-16T13:47:04.175Z,13.42
2022-11-16T13:49:37.259Z,13.29
2022-11-16T13:52:22.773Z,13.18
2022-11-16T13:54:53.496Z,13.16
2022-11-16T13:57:25.573Z,13.16
2022-11-16T14:00:09.178Z,13.30
2022-11-16T14:02:38.441Z,13.35
2022-11-16T14:05:16.130Z,13.36
2022-11-16T14:07:47.237Z,13.26
2022-11-16T14:11:00.967Z,13.33
2022-11-16T14:13:38.962Z,13.39
2022-11-16T14:16:42.853Z,13.46
2022-11-16T14:19:44.247Z,13.47
2022-11-16T14:22:24.626Z,13.19
2022-11-16T14:24:58.943Z,12.98
2022-11-16T14:27:34.236Z,12.84
2022-11-16T14:30:06.775Z,12.82
2022-11-16T14:32:44.285Z,12.72
2022-11-16T14:35:28.185Z,12.67
2022-11-16T14:38:01.263Z,12.65
2022-11-16T14:40:29.251Z,12.55
2022-11-16T14:43:15.947Z,12.65
2022-11-16T14:45:48.281Z,12.68
2022-11-16T14:48:18.703Z,12.61
2022-11-16T14:50:59.318Z,12.58
2022-11-16T14:53:30.296Z,12.45
2022-11-16T14:56:09.010Z,12.36
2022-11-16T14:58:37.211Z,12.30
2022-11-16T15:01:07.840Z,12.22
2022-11-16T15:03:42.152Z,12.26
2022-11-16T15:06:10.289Z,12.23
2022-11-16T15:08:45.538Z,12.14
2022-11-16T15:11:23.898Z,12.07
2022-11-16T15:13:51.893Z,12.03
2022-11-16T15:16:21.291Z,11.97
2022-11-16T15:18:59.871Z,12.02
2022-11-16T15:21:27.936Z,11.94
2022-11-16T15:26:45.436Z,11.79
2022-11-16T15:29:17.675Z,11.69
2022-11-16T15:31:45.743Z,11.52
2022-11-16T15:34:14.310Z,11.42
2022-11-16T15:36:42.649Z,11.34
2022-11-16T15:39:14.943Z,11.32
2022-11-16T15:41:43.258Z,11.35
2022-11-16T15:44:16.126Z,11.15
2022-11-16T15:46:46.570Z,11.01
2022-11-16T15:49:27.094Z,10.85
2022-11-16T15:51:54.890Z,10.77
2022-11-16T15:54:26.856Z,10.66
2022-11-16T15:56:56.942Z,10.60
2022-11-16T15:59:28.951Z,10.48
2022-11-16T16:01:57.273Z,10.39
2022-11-16T16:04:25.909Z,10.38
2022-11-16T16:06:55.881Z,10.30
2022-11-16T16:09:27.705Z,10.26
2022-11-16T16:11:57.327Z,10.26
2022-11-16T16:14:28.311Z,10.20
2022-11-16T16:16:58.241Z,10.13
2022-11-16T16:19:34.133Z,10.08
2022-11-16T16:22:02.860Z,10.02
2022-11-16T16:24:45.858Z,10.03
2022-11-16T16:27:19.495Z,9.95
2022-11-16T16:29:48.344Z,9.95
2022-11-16T16:32:24.968Z,9.98
2022-11-16T16:34:53.230Z,9.95
2022-11-16T16:37:21.504Z,9.97
2022-11-16T16:39:50.632Z,9.94
2022-11-16T16:42:19.072Z,9.92
2022-11-16T16:44:48.535Z,9.97
2022-11-16T16:47:17.513Z,10.05
2022-11-16T16:49:45.328Z,10.11
2022-11-16T16:52:14.128Z,10.15
2022-11-16T16:54:42.287Z,10.20
2022-11-16T16:57:15.815Z,10.20
2022-11-16T16:59:45.135Z,10.19
2022-11-16T17:02:13.866Z,10.19
2022-11-16T17:04:43.872Z,10.19
2022-11-16T17:07:11.778Z,10.13
2022-11-16T17:09:39.586Z,10.09
2022-11-16T17:12:07.532Z,10.08
2022-11-16T17:14:36.715Z,9.95
2022-11-16T17:17:04.489Z,9.87
2022-11-16T17:19:32.283Z,9.78
2022-11-16T17:22:00.130Z,9.74
2022-11-16T17:24:27.981Z,9.70
2022-11-16T17:26:55.871Z,9.57
2022-11-16T17:29:23.669Z,9.50
2022-11-16T17:31:52.878Z,9.51
2022-11-16T17:34:20.791Z,9.43
2022-11-16T17:36:48.559Z,9.41
2022-11-16T17:39:16.742Z,9.43
2022-11-16T17:41:44.551Z,9.40
2022-11-16T17:44:15.964Z,9.43
2022-11-16T17:46:46.528Z,9.47
2022-11-16T17:49:15.724Z,9.47
2022-11-16T17:51:43.528Z,9.50
2022-11-16T17:54:11.365Z,9.47
2022-11-16T17:56:39.214Z,9.48
2022-11-16T17:59:07.102Z,9.50
2022-11-16T18:01:34.951Z,9.43
2022-11-16T18:04:03.497Z,9.40
2022-11-16T18:06:33.206Z,9.48
2022-11-16T18:09:01.273Z,9.46
2022-11-16T18:11:29.393Z,9.46
2022-11-16T18:13:58.787Z,9.51
2022-11-16T18:16:27.293Z,9.55
2022-11-16T18:18:57.819Z,9.52
2022-11-16T18:21:26.265Z,9.51
2022-11-16T18:23:55.943Z,9.51
2022-11-16T18:26:25.167Z,9.54
2022-11-16T18:28:54.062Z,9.52
2022-11-16T18:31:23.789Z,9.47
2022-11-16T18:33:52.335Z,9.48
2022-11-16T18:36:21.763Z,9.48
2022-11-16T18:38:49.775Z,9.47
2022-11-16T18:41:21.649Z,9.44
2022-11-16T18:43:51.458Z,9.48
2022-11-16T18:46:20.010Z,9.51
2022-11-16T18:48:48.125Z,9.47
2022-11-16T18:51:17.421Z,9.48
2022-11-16T18:53:45.190Z,9.54
2022-11-16T18:56:13.198Z,9.52
2022-11-16T18:58:50.448Z,9.48
2022-11-16T19:01:21.984Z,9.57
2022-11-16T19:03:50.119Z,9.46
2022-11-16T19:06:18.475Z,9.47
2022-11-16T19:08:55.287Z,9.50
2022-11-16T19:11:24.505Z,9.48
2022-11-16T19:13:56.132Z,9.55
2022-11-16T19:16:25.430Z,9.58
2022-11-16T19:18:53.351Z,9.55
2022-11-16T19:21:22.118Z,9.57
2022-11-16T19:23:51.506Z,9.55
2022-11-16T19:26:19.834Z,9.58
2022-11-16T19:28:49.991Z,9.58
2022-11-16T19:31:22.649Z,9.58
2022-11-16T19:33:55.066Z,9.52
2022-11-16T19:36:23.568Z,9.60
2022-11-16T19:38:51.893Z,9.62
2022-11-16T19:41:22.326Z,9.71
2022-11-16T19:43:51.308Z,9.73
2022-11-16T19:46:21.496Z,9.75
2022-11-16T19:48:49.564Z,9.82
2022-11-16T19:51:19.182Z,9.89
2022-11-16T19:53:47.935Z,9.99
2022-11-16T19:56:17.462Z,9.97
2022-11-16T19:58:45.680Z,9.97
2022-11-16T20:01:14.796Z,9.95
2022-11-16T20:03:44.577Z,9.89
2022-11-16T20:06:14.892Z,9.87
2022-11-16T20:08:48.517Z,9.92
2022-11-16T20:11:20.334Z,9.92
2022-11-16T20:13:48.749Z,9.99
2022-11-16T20:16:17.454Z,10.01
2022-11-16T20:18:47.934Z,10.03
2022-11-16T20:21:20.354Z,10.08
2022-11-16T20:23:48.314Z,10.13
2022-11-16T20:26:16.175Z,10.11
2022-11-16T20:28:44.232Z,10.16
2022-11-16T20:31:13.706Z,10.23
2022-11-16T20:33:42.218Z,10.29
2022-11-16T20:36:12.745Z,10.32
2022-11-16T20:38:41.140Z,10.39
2022-11-16T20:41:10.407Z,10.36
2022-11-16T20:43:40.123Z,10.39
2022-11-16T20:46:09.103Z,10.43
2022-11-16T20:48:37.520Z,10.49
2022-11-16T20:51:06.262Z,10.53
2022-11-16T20:53:36.094Z,10.57
2022-11-16T20:56:05.807Z,10.64
2022-11-16T20:58:34.074Z,10.60
2022-11-16T21:01:02.426Z,10.67
2022-11-16T21:03:30.483Z,10.63
2022-11-16T21:05:58.576Z,10.66
2022-11-16T21:08:27.059Z,10.60
2022-11-16T21:10:56.341Z,10.53
2022-11-16T21:13:42.780Z,10.60
2022-11-16T21:16:12.980Z,10.57
2022-11-16T21:18:41.280Z,10.59
2022-11-16T21:21:11.302Z,10.53
2022-11-16T21:23:40.906Z,10.56
2022-11-16T21:26:13.232Z,10.53
2022-11-16T21:28:41.523Z,10.52
2022-11-16T21:31:11.980Z,10.57
2022-11-16T21:33:39.888Z,10.61
2022-11-16T21:36:10.709Z,10.63
2022-11-16T21:38:38.715Z,10.67
2022-11-16T21:41:07.254Z,10.61
2022-11-16T21:43:37.245Z,10.63
2022-11-16T21:46:07.541Z,10.60
2022-11-16T21:48:36.111Z,10.49
2022-11-16T21:51:05.301Z,10.56
2022-11-16T21:53:33.994Z,10.59
2022-11-16T21:56:02.608Z,10.63
2022-11-16T21:58:30.594Z,10.60
2022-11-16T22:01:01.401Z,10.67
2022-11-16T22:03:30.872Z,10.66
2022-11-16T22:06:17.606Z,10.64
2022-11-16T22:08:45.999Z,10.67
2022-11-16T22:11:14.857Z,10.69
2022-11-16T22:13:43.155Z,10.83
2022-11-16T22:16:15.061Z,10.81
2022-11-16T22:18:43.096Z,10.74
2022-11-16T22:21:11.937Z,10.80
2022-11-16T22:23:40.262Z,10.81
2022-11-16T22:26:09.948Z,10.79
2022-11-16T22:28:39.023Z,10.83
2022-11-16T22:31:08.177Z,10.91
2022-11-16T22:33:37.862Z,10.96
2022-11-16T22:36:08.245Z,10.93
2022-11-16T22:38:36.285Z,10.91
2022-11-16T22:41:04.467Z,10.96
2022-11-16T22:43:33.276Z,10.90
2022-11-16T22:46:04.252Z,10.83
2022-11-16T22:48:32.575Z,10.79
2022-11-16T22:51:06.769Z,10.76
2022-11-16T22:53:35.235Z,10.77
2022-11-16T22:56:07.859Z,10.85
2022-11-16T22:58:35.904Z,10.85
2022-11-16T23:01:03.877Z,10.89
2022-11-16T23:03:32.229Z,10.93
2022-11-16T23:06:00.645Z,10.94
2022-11-16T23:08:29.836Z,10.91
2022-11-16T23:11:19.958Z,10.90
2022-11-16T23:14:06.081Z,10.84
2022-11-16T23:16:34.350Z,10.80
2022-11-16T23:19:02.284Z,10.80
2022-11-16T23:21:47.743Z,10.81
2022-11-16T23:24:39.552Z,10.89
2022-11-16T23:27:24.938Z,10.87
2022-11-16T23:29:53.447Z,10.89
2022-11-16T23:32:21.278Z,10.91
2022-11-16T23:34:49.051Z,10.83
2022-11-16T23:37:16.786Z,10.77
2022-11-16T23:39:45.943Z,10.83
2022-11-16T23:42:31.152Z,10.85
2022-11-16T23:44:58.903Z,10.81
2022-11-16T23:47:26.770Z,10.81
2022-11-16T23:49:54.506Z,10.80
2022-11-16T23:52:22.298Z,10.79
2022-11-16T23:54:51.399Z,10.71
2022-11-16T23:57:19.233Z,10.71
2022-11-16T23:59:46.973Z,10.74
